UNTT/TOF METAR and TAF weather

Enter ICAO airport designator
Station Type Date Time Source
UNTT METAR 2020/03/28 13:30 UTC NOAA

UNTT 281330Z 24003MPS 9999 FEW022CB M01/M03 Q1013 R21/190055 NOSIG RMK QFE745


Station Type Date Time Source
UNTT Decoded METAR 2020/03/28 13:30 UTC NOAA

Station name not available
Mar 28, 2020 - 09:30 AM EDT / 2020.03.28 1330 UTC
Wind: from the WSW (240 degrees) at 7 MPH (6 KT):0
Visibility: greater than 7 mile(s):0
Sky conditions: mostly clear
Weather: Cumulonimbus clouds observed
Temperature: 30 F (-1 C)
Windchill: 23 F (-5 C):1
Dew Point: 26 F (-3 C)
Relative Humidity: 86%
Pressure (altimeter): 29.91 in. Hg (1013 hPa)
ob: UNTT 281330Z 24003MPS 9999 FEW022CB M01/M03 Q1013 R21/190055 NOSIG RMK QFE745
cycle: 13

Station Type Date Time Source
UNTT TAF UTC NOAA

Error!

Example: see airport list